Time;durP1;ratioP1;P1;durP2;ratioP2;P2;SDS_P1;SDS_P2;PMS_P1;PMS_P2;Temp;Humidity;BMP_temperature;BMP_pressure;BME280_temperature;BME280_humidity;BME280_pressure;Samples;Min_cycle;Max_cycle;Signal;HPM_P1;HPM_P2
2022/10/01 00:01:07;;;;;;;4.50;4.00;;;13.50;99.90;;;;;;5033393;28;20433;-48
2022/10/01 00:03:34;;;;;;;4.13;3.83;;;13.50;99.90;;;;;;5032077;28;20609;-47
2022/10/01 00:06:01;;;;;;;4.80;4.40;;;13.60;99.90;;;;;;5031836;28;20441;-53
2022/10/01 00:08:28;;;;;;;4.60;4.20;;;13.50;99.90;;;;;;5032976;28;20425;-52
2022/10/01 00:10:54;;;;;;;4.40;4.00;;;13.50;99.90;;;;;;5033059;28;20423;-48
2022/10/01 00:13:19;;;;;;;4.70;4.30;;;13.50;99.90;;;;;;5032254;28;20417;-50
2022/10/01 00:15:46;;;;;;;4.70;4.30;;;13.50;99.90;;;;;;5033145;28;20243;-47
2022/10/01 00:18:11;;;;;;;5.17;4.67;;;13.50;99.90;;;;;;5032560;28;20272;-51
2022/10/01 00:20:42;;;;;;;4.90;4.20;;;13.50;99.90;;;;;;5033688;28;20463;-48
2022/10/01 00:23:09;;;;;;;6.50;4.70;;;13.50;99.90;;;;;;5032177;28;20568;-49
2022/10/01 00:25:35;;;;;;;5.17;4.70;;;13.50;99.90;;;;;;5032839;28;20437;-51
2022/10/01 00:28:01;;;;;;;4.80;4.10;;;13.50;99.90;;;;;;5032525;28;20421;-46
2022/10/01 00:30:27;;;;;;;5.00;4.37;;;13.50;99.90;;;;;;5032761;28;20436;-49
2022/10/01 00:32:53;;;;;;;4.70;4.30;;;13.50;99.90;;;;;;5031946;28;20284;-50
2022/10/01 00:35:21;;;;;;;4.60;4.03;;;13.50;99.90;;;;;;5031620;28;20262;-49
2022/10/01 00:37:51;;;;;;;4.67;4.27;;;13.40;99.90;;;;;;5032388;28;20457;-48
2022/10/01 00:40:19;;;;;;;4.80;4.40;;;13.40;99.90;;;;;;5032758;28;20507;-49
2022/10/01 00:42:46;;;;;;;4.50;4.10;;;13.40;99.90;;;;;;5031933;28;20425;-51
2022/10/01 00:45:14;;;;;;;5.30;4.23;;;13.40;99.90;;;;;;5031835;28;20487;-49
2022/10/01 00:47:59;;;;;;;5.17;3.80;;;13.40;99.90;;;;;;5032271;28;20627;-51
2022/10/01 00:50:31;;;;;;;5.33;4.50;;;13.50;99.90;;;;;;5032435;28;20433;-53
2022/10/01 00:53:01;;;;;;;4.77;4.37;;;13.50;99.90;;;;;;5031474;28;21435;-53
2022/10/01 00:55:31;;;;;;;4.40;4.10;;;13.50;99.90;;;;;;5031480;28;20803;-48
2022/10/01 00:57:57;;;;;;;4.70;4.00;;;13.40;99.90;;;;;;5032135;28;20417;-50
2022/10/01 01:00:24;;;;;;;3.93;3.63;;;13.30;99.90;;;;;;5032175;28;20425;-47
2022/10/01 01:02:50;;;;;;;4.70;4.30;;;13.30;99.90;;;;;;5031589;28;20546;-49
2022/10/01 01:05:16;;;;;;;5.27;4.30;;;13.30;99.90;;;;;;5031974;28;21346;-49
2022/10/01 01:07:48;;;;;;;4.10;3.70;;;13.20;99.90;;;;;;5032029;28;20429;-49
2022/10/01 01:10:17;;;;;;;7.43;4.50;;;13.20;99.90;;;;;;5031699;28;20495;-52
2022/10/01 01:13:08;;;;;;;4.60;4.30;;;13.10;99.90;;;;;;5031159;28;20508;-50
2022/10/01 01:15:49;;;;;;;5.47;4.50;;;13.00;99.90;;;;;;5032090;28;20437;-47
2022/10/01 01:18:24;;;;;;;4.43;4.03;;;12.90;99.90;;;;;;5031839;28;20421;-51
2022/10/01 01:21:02;;;;;;;5.53;4.90;;;12.90;99.90;;;;;;5032275;28;20436;-48
2022/10/01 01:24:08;;;;;;;5.10;4.70;;;12.80;99.90;;;;;;5031334;28;20428;-50
2022/10/01 01:27:12;;;;;;;5.00;4.60;;;12.70;99.90;;;;;;5025756;28;20567;-49
2022/10/01 01:29:47;;;;;;;6.60;5.40;;;12.70;99.90;;;;;;5031696;28;20421;-49
2022/10/01 01:33:03;;;;;;;5.60;5.10;;;12.60;99.90;;;;;;5031580;28;20464;-48
2022/10/01 01:35:53;;;;;;;6.60;4.80;;;12.50;99.90;;;;;;5031698;28;20783;-51
2022/10/01 01:38:27;;;;;;;5.43;5.03;;;12.50;99.90;;;;;;5031570;28;20433;-47
2022/10/01 01:40:57;;;;;;;5.60;5.10;;;12.40;99.90;;;;;;5031329;28;20455;-48
2022/10/01 01:43:28;;;;;;;6.27;5.50;;;12.30;99.90;;;;;;5030681;28;20463;-48
2022/10/01 01:45:54;;;;;;;5.90;5.30;;;12.30;99.90;;;;;;5031222;28;20444;-49
2022/10/01 01:48:22;;;;;;;5.67;5.17;;;12.30;99.90;;;;;;5031337;28;20425;-48
2022/10/01 01:51:13;;;;;;;6.23;5.63;;;12.20;99.90;;;;;;5031117;28;20561;-50
2022/10/01 01:53:39;;;;;;;5.20;4.70;;;12.20;99.90;;;;;;5029779;28;20478;-47
2022/10/01 01:56:06;;;;;;;6.17;5.67;;;12.20;99.90;;;;;;5031021;28;20921;-48
2022/10/01 01:58:33;;;;;;;8.53;4.97;;;12.10;99.90;;;;;;5030051;28;20425;-51
2022/10/01 02:01:00;;;;;;;5.73;5.10;;;12.10;99.90;;;;;;5030993;28;20446;-46
2022/10/01 02:03:28;;;;;;;5.77;4.93;;;12.10;99.90;;;;;;5029082;28;20460;-49
2022/10/01 02:06:30;;;;;;;5.77;4.63;;;12.00;99.90;;;;;;5029497;28;20448;-46
2022/10/01 02:09:16;;;;;;;5.60;5.00;;;12.00;99.90;;;;;;5030630;28;20440;-47
2022/10/01 02:12:03;;;;;;;5.20;4.70;;;12.00;99.90;;;;;;5030639;28;20493;-47
2022/10/01 02:14:46;;;;;;;5.67;5.17;;;12.00;99.90;;;;;;5030297;28;20882;-51
2022/10/01 02:17:26;;;;;;;5.60;5.10;;;12.00;99.90;;;;;;5030823;28;20448;-48
2022/10/01 02:19:57;;;;;;;4.97;4.57;;;12.00;99.90;;;;;;5031284;28;21155;-49
2022/10/01 02:22:40;;;;;;;5.13;4.63;;;12.00;99.90;;;;;;5030521;28;20432;-50
2022/10/01 02:25:08;;;;;;;5.37;4.87;;;11.90;99.90;;;;;;5030691;28;20582;-50
2022/10/01 02:27:54;;;;;;;4.63;4.20;;;11.90;99.90;;;;;;5030553;28;20432;-51
2022/10/01 02:30:20;;;;;;;6.13;4.50;;;11.90;99.90;;;;;;5030730;28;20547;-51
2022/10/01 02:32:49;;;;;;;4.53;4.13;;;11.90;99.90;;;;;;5029497;28;20567;-50
2022/10/01 02:35:17;;;;;;;5.27;4.77;;;11.90;99.90;;;;;;5030610;28;20778;-50
2022/10/01 02:37:47;;;;;;;5.17;4.77;;;11.90;99.90;;;;;;5029916;28;20511;-47
2022/10/01 02:40:16;;;;;;;4.17;3.80;;;11.90;99.90;;;;;;5030642;28;20518;-47
2022/10/01 02:42:51;;;;;;;4.90;4.30;;;11.90;99.90;;;;;;5029509;28;20433;-48
2022/10/01 02:45:22;;;;;;;4.63;4.23;;;11.90;99.90;;;;;;5030473;28;20479;-51
2022/10/01 02:47:57;;;;;;;4.97;4.47;;;11.90;99.90;;;;;;5030040;28;20790;-50
2022/10/01 02:50:29;;;;;;;5.53;5.10;;;11.90;99.90;;;;;;5030145;28;20424;-46
2022/10/01 02:53:03;;;;;;;5.70;4.37;;;11.90;99.90;;;;;;5029325;28;20563;-51
2022/10/01 02:55:34;;;;;;;4.63;4.20;;;11.90;99.90;;;;;;5029305;28;20429;-49
2022/10/01 02:58:00;;;;;;;4.43;4.03;;;11.90;99.90;;;;;;5030022;28;20421;-49
2022/10/01 03:00:27;;;;;;;4.43;4.03;;;11.90;99.90;;;;;;5030051;28;20532;-50
2022/10/01 03:02:53;;;;;;;4.90;4.50;;;11.90;99.90;;;;;;5029232;28;20487;-49
2022/10/01 03:05:19;;;;;;;4.17;3.80;;;11.90;99.90;;;;;;5029997;28;21279;-47
2022/10/01 03:07:46;;;;;;;4.77;4.37;;;11.90;99.90;;;;;;5030048;28;20442;-46
2022/10/01 03:10:13;;;;;;;6.00;4.40;;;11.90;99.90;;;;;;5029821;28;21013;-48
2022/10/01 03:12:43;;;;;;;4.97;4.37;;;11.80;99.90;;;;;;5029359;28;20491;-46
2022/10/01 03:15:13;;;;;;;4.80;4.40;;;11.70;99.90;;;;;;5029714;28;20452;-49
2022/10/01 03:17:39;;;;;;;4.70;4.20;;;11.70;99.90;;;;;;5029909;28;20421;-47
2022/10/01 03:20:05;;;;;;;4.23;3.83;;;11.70;99.90;;;;;;5030443;28;20759;-48
2022/10/01 03:22:32;;;;;;;4.10;3.70;;;11.70;99.90;;;;;;5029689;28;20206;-47
2022/10/01 03:24:58;;;;;;;5.57;4.93;;;11.70;99.90;;;;;;5029364;28;20425;-48
2022/10/01 03:27:23;;;;;;;5.20;3.70;;;11.60;99.90;;;;;;5029891;28;20428;-48
2022/10/01 03:29:49;;;;;;;5.20;4.37;;;11.60;99.90;;;;;;5029511;28;20203;-50
2022/10/01 03:32:15;;;;;;;4.23;3.83;;;11.60;99.90;;;;;;5030048;28;20229;-49
2022/10/01 03:34:40;;;;;;;5.17;4.67;;;11.70;99.90;;;;;;5029027;28;20194;-52
2022/10/01 03:37:06;;;;;;;4.33;3.80;;;11.60;99.90;;;;;;5029841;28;20275;-49
2022/10/01 03:39:32;;;;;;;4.00;3.60;;;11.60;99.90;;;;;;5029568;28;20197;-46
2022/10/01 03:41:58;;;;;;;3.93;3.63;;;11.60;99.90;;;;;;5029699;28;20515;-47
2022/10/01 03:44:24;;;;;;;4.40;4.00;;;11.60;99.90;;;;;;5028734;28;20520;-49
2022/10/01 03:46:50;;;;;;;4.07;3.73;;;11.60;99.90;;;;;;5028422;28;20207;-49
2022/10/01 03:49:16;;;;;;;3.80;3.50;;;11.60;99.90;;;;;;5029490;28;20623;-48
2022/10/01 03:51:42;;;;;;;3.97;3.60;;;11.60;99.90;;;;;;5029751;28;20465;-49
2022/10/01 03:54:08;;;;;;;3.60;3.30;;;11.60;99.90;;;;;;5027824;28;20222;-46
2022/10/01 03:56:34;;;;;;;4.20;3.80;;;11.70;99.90;;;;;;5029481;28;20189;-47
2022/10/01 03:59:00;;;;;;;3.50;3.20;;;11.60;99.90;;;;;;5028986;28;20956;-52
2022/10/01 04:01:26;;;;;;;4.03;3.63;;;11.60;99.90;;;;;;5029776;28;20781;-45
2022/10/01 04:03:52;;;;;;;4.07;3.67;;;11.60;99.90;;;;;;5028877;28;20437;-46
2022/10/01 04:06:18;;;;;;;3.00;2.80;;;11.60;99.90;;;;;;5029511;28;20444;-47
2022/10/01 04:08:44;;;;;;;4.03;3.63;;;11.60;99.90;;;;;;5029392;28;20440;-47
2022/10/01 04:11:10;;;;;;;3.97;3.30;;;11.60;99.90;;;;;;5029342;28;20777;-51
2022/10/01 04:13:36;;;;;;;3.10;2.80;;;11.50;99.90;;;;;;5028380;28;20721;-48
2022/10/01 04:16:03;;;;;;;3.73;2.93;;;11.50;99.90;;;;;;5029354;28;20832;-47
2022/10/01 04:18:29;;;;;;;2.50;2.30;;;11.50;99.90;;;;;;5029320;28;20217;-45
2022/10/01 04:20:55;;;;;;;2.90;2.70;;;11.50;99.90;;;;;;5030509;28;20978;-48
2022/10/01 04:23:21;;;;;;;2.30;2.10;;;11.50;99.90;;;;;;5032168;28;20424;-48
2022/10/01 04:25:47;;;;;;;3.80;2.40;;;11.50;99.90;;;;;;5032927;28;20834;-47
2022/10/01 04:28:13;;;;;;;2.67;2.27;;;11.50;99.90;;;;;;5032525;28;20484;-48
2022/10/01 04:30:41;;;;;;;2.47;2.27;;;11.50;99.90;;;;;;5032832;28;20195;-48
2022/10/01 04:33:13;;;;;;;2.27;2.07;;;11.50;99.90;;;;;;5032173;28;21181;-49
2022/10/01 04:35:39;;;;;;;3.23;2.20;;;11.50;99.90;;;;;;5031455;28;20433;-48
2022/10/01 04:38:15;;;;;;;3.20;2.20;;;11.50;99.90;;;;;;5032645;28;20859;-51
2022/10/01 04:40:41;;;;;;;2.70;2.30;;;11.50;99.90;;;;;;5032264;28;20455;-48
2022/10/01 04:43:10;;;;;;;2.40;2.20;;;11.50;99.90;;;;;;5031959;28;20425;-49
2022/10/01 04:45:36;;;;;;;2.50;1.80;;;11.50;99.90;;;;;;5032465;28;20427;-48
2022/10/01 04:48:02;;;;;;;4.47;2.30;;;11.50;99.90;;;;;;5032577;28;20778;-52
2022/10/01 04:50:28;;;;;;;2.37;1.93;;;11.50;99.90;;;;;;5032280;28;20512;-49
2022/10/01 04:52:54;;;;;;;1.80;1.70;;;11.60;99.90;;;;;;5031701;28;20237;-48
2022/10/01 04:55:21;;;;;;;2.27;2.07;;;11.60;99.90;;;;;;5031225;28;20687;-52
2022/10/01 04:57:47;;;;;;;2.20;2.00;;;11.60;99.90;;;;;;5032439;28;20425;-49
2022/10/01 05:00:19;;;;;;;2.50;1.97;;;11.60;99.90;;;;;;5031000;28;20421;-51
2022/10/01 05:02:45;;;;;;;1.50;1.40;;;11.70;99.90;;;;;;5031586;28;20818;-50
2022/10/01 05:05:12;;;;;;;1.90;1.80;;;11.70;99.90;;;;;;5031925;28;20871;-51
2022/10/01 05:07:38;;;;;;;1.40;1.30;;;11.70;99.90;;;;;;5031830;28;20433;-50
2022/10/01 05:10:05;;;;;;;1.67;1.57;;;11.70;99.90;;;;;;5032091;28;20588;-50
2022/10/01 05:12:31;;;;;;;2.23;1.70;;;11.80;99.90;;;;;;5031583;28;20465;-48
2022/10/01 05:14:57;;;;;;;1.97;1.30;;;11.80;99.90;;;;;;5030321;28;20436;-53
2022/10/01 05:17:22;;;;;;;1.63;1.53;;;11.80;99.90;;;;;;5031933;28;20226;-47
2022/10/01 05:19:49;;;;;;;1.63;1.40;;;11.80;99.90;;;;;;5032351;28;20201;-51
2022/10/01 05:22:15;;;;;;;2.23;1.53;;;11.80;99.90;;;;;;5031569;28;20182;-48
2022/10/01 05:24:42;;;;;;;1.53;1.43;;;11.80;99.90;;;;;;5031192;28;20535;-48
2022/10/01 05:27:11;;;;;;;2.00;1.60;;;11.90;99.90;;;;;;5031820;28;20457;-47
2022/10/01 05:29:37;;;;;;;1.57;1.47;;;11.90;99.90;;;;;;5031701;28;20432;-49
2022/10/01 05:32:03;;;;;;;2.00;1.80;;;11.90;99.90;;;;;;5031337;28;20777;-49
2022/10/01 05:34:29;;;;;;;1.50;1.40;;;11.80;99.90;;;;;;5030937;28;20440;-48
2022/10/01 05:36:55;;;;;;;2.10;1.90;;;11.80;99.90;;;;;;5031273;28;20421;-48
2022/10/01 05:39:20;;;;;;;1.67;1.57;;;11.90;99.90;;;;;;5031472;28;20194;-49
2022/10/01 05:41:46;;;;;;;1.40;1.30;;;11.90;99.90;;;;;;5031437;28;20281;-48
2022/10/01 05:44:11;;;;;;;1.60;1.23;;;11.90;99.90;;;;;;5030665;28;20414;-49
2022/10/01 05:46:37;;;;;;;1.37;1.27;;;11.90;99.90;;;;;;5031140;28;20714;-48
2022/10/01 05:49:05;;;;;;;1.10;1.00;;;11.90;99.90;;;;;;5029948;28;20194;-47
2022/10/01 05:51:31;;;;;;;1.43;1.13;;;12.00;99.90;;;;;;5030329;28;20461;-45
2022/10/01 05:54:00;;;;;;;1.30;1.00;;;11.90;99.90;;;;;;5028774;28;20512;-50
2022/10/01 05:56:27;;;;;;;1.30;1.20;;;12.00;99.90;;;;;;5031349;28;20225;-49
2022/10/01 05:58:52;;;;;;;1.00;0.90;;;11.90;99.90;;;;;;5031006;28;20759;-51
2022/10/01 06:01:18;;;;;;;1.50;1.13;;;11.90;99.90;;;;;;5031179;28;20516;-52
2022/10/01 06:03:44;;;;;;;1.17;1.00;;;11.90;99.90;;;;;;5030278;28;20200;-47
2022/10/01 06:06:09;;;;;;;1.90;1.03;;;11.90;99.90;;;;;;5030568;28;20236;-49
2022/10/01 06:08:39;;;;;;;1.13;0.93;;;11.90;99.90;;;;;;5030856;28;20198;-49
2022/10/01 06:11:05;;;;;;;1.83;0.90;;;11.90;99.90;;;;;;5030918;28;20186;-50
2022/10/01 06:13:30;;;;;;;0.87;0.87;;;11.90;99.90;;;;;;5030015;28;20850;-53
2022/10/01 06:15:56;;;;;;;0.80;0.70;;;11.90;99.90;;;;;;5030956;28;20209;-50
2022/10/01 06:18:22;;;;;;;0.70;0.70;;;12.00;99.90;;;;;;5030583;28;20209;-51
2022/10/01 06:20:48;;;;;;;1.20;0.83;;;12.00;99.90;;;;;;5030857;28;20186;-52
2022/10/01 06:23:14;;;;;;;0.80;0.80;;;12.10;99.90;;;;;;5029891;28;20202;-49
2022/10/01 06:25:42;;;;;;;0.70;0.70;;;12.00;99.90;;;;;;5030921;28;20187;-50
2022/10/01 06:28:09;;;;;;;0.77;0.77;;;12.00;99.90;;;;;;5030426;28;20422;-49
2022/10/01 06:30:37;;;;;;;0.97;0.80;;;12.10;99.90;;;;;;5030610;28;20437;-50
2022/10/01 06:33:08;;;;;;;1.10;1.00;;;12.10;99.90;;;;;;5029552;28;20468;-48
2022/10/01 06:35:38;;;;;;;0.80;0.80;;;12.10;99.90;;;;;;5030602;28;20440;-53
2022/10/01 06:38:05;;;;;;;0.60;0.50;;;12.10;99.90;;;;;;5030475;28;21078;-51
2022/10/01 06:40:31;;;;;;;2.10;0.90;;;12.10;99.90;;;;;;5030226;28;20936;-49
2022/10/01 06:42:57;;;;;;;1.00;0.70;;;12.20;99.90;;;;;;5029620;28;20431;-52
2022/10/01 06:45:27;;;;;;;0.60;0.60;;;12.10;99.90;;;;;;5029889;28;20429;-49
2022/10/01 06:48:01;;;;;;;0.70;0.60;;;12.10;99.90;;;;;;5030231;28;20429;-47
2022/10/01 06:50:27;;;;;;;2.03;0.80;;;12.10;99.90;;;;;;5030185;28;20829;-48
2022/10/01 06:52:53;;;;;;;0.77;0.63;;;12.10;99.90;;;;;;5029634;28;20504;-52
2022/10/01 06:55:30;;;;;;;1.00;0.80;;;12.10;99.90;;;;;;5028644;28;20425;-49
2022/10/01 06:57:58;;;;;;;1.90;0.80;;;12.10;99.90;;;;;;5029971;28;20503;-49
2022/10/01 07:00:25;;;;;;;3.03;0.90;;;12.20;99.90;;;;;;5030100;28;20424;-48
2022/10/01 07:02:51;;;;;;;1.13;1.03;;;12.20;99.90;;;;;;5029592;28;20425;-47
2022/10/01 07:05:17;;;;;;;2.13;1.30;;;12.20;99.90;;;;;;5029794;28;20491;-48
2022/10/01 07:07:43;;;;;;;1.20;1.10;;;12.20;99.90;;;;;;5030044;28;20468;-51
2022/10/01 07:10:10;;;;;;;1.93;1.23;;;12.20;99.90;;;;;;5029856;28;20230;-49
2022/10/01 07:12:36;;;;;;;1.40;1.30;;;12.30;99.90;;;;;;5029418;28;20463;-50
2022/10/01 07:15:04;;;;;;;1.80;1.70;;;12.30;99.90;;;;;;5029664;28;20453;-51
2022/10/01 07:17:30;;;;;;;2.10;1.97;;;12.20;99.90;;;;;;5030006;28;20427;-50
2022/10/01 07:19:56;;;;;;;3.60;2.00;;;12.30;99.90;;;;;;5029988;28;20752;-47
2022/10/01 07:22:23;;;;;;;2.00;1.90;;;12.30;99.90;;;;;;5029821;28;20478;-48
2022/10/01 07:24:49;;;;;;;3.33;1.90;;;12.30;99.90;;;;;;5029412;28;20193;-46
2022/10/01 07:27:15;;;;;;;3.90;1.93;;;12.30;99.90;;;;;;5029638;28;20425;-48
2022/10/01 07:29:41;;;;;;;3.00;2.40;;;12.20;99.90;;;;;;5029728;28;20421;-50
2022/10/01 07:32:09;;;;;;;2.50;2.40;;;12.20;99.90;;;;;;5029700;28;20712;-48
2022/10/01 07:34:37;;;;;;;2.47;2.27;;;12.20;99.90;;;;;;5028962;28;20421;-48
2022/10/01 07:37:02;;;;;;;2.70;2.50;;;12.20;99.90;;;;;;5029719;28;20436;-49
2022/10/01 07:39:29;;;;;;;2.40;2.20;;;12.20;99.90;;;;;;5029645;28;20413;-46
2022/10/01 07:41:55;;;;;;;2.10;2.00;;;12.20;99.90;;;;;;5029407;28;20187;-48
2022/10/01 07:44:21;;;;;;;2.60;2.40;;;12.20;99.90;;;;;;5028954;28;20538;-50
2022/10/01 07:46:47;;;;;;;2.70;2.50;;;12.20;99.90;;;;;;5028369;28;20425;-49
2022/10/01 07:49:13;;;;;;;2.10;2.00;;;12.20;99.90;;;;;;5029500;28;20511;-52
2022/10/01 07:51:42;;;;;;;2.90;2.30;;;12.30;99.90;;;;;;5029516;28;20213;-50
2022/10/01 07:54:08;;;;;;;2.40;2.20;;;12.30;99.90;;;;;;5027445;28;20430;-46
2022/10/01 07:56:34;;;;;;;2.80;2.20;;;12.30;99.90;;;;;;5031500;28;21173;-48
2022/10/01 07:59:00;;;;;;;2.83;2.30;;;12.30;99.90;;;;;;5033192;28;20432;-50
2022/10/01 08:01:25;;;;;;;2.37;2.17;;;12.40;99.90;;;;;;5030968;28;20437;-45
2022/10/01 08:03:51;;;;;;;2.63;1.80;;;12.40;99.90;;;;;;5031880;28;20197;-49
2022/10/01 08:06:18;;;;;;;2.50;2.30;;;12.40;99.90;;;;;;5031962;28;20332;-51
2022/10/01 08:08:45;;;;;;;2.40;2.03;;;12.40;99.90;;;;;;5033136;28;20432;-47
2022/10/01 08:11:13;;;;;;;2.00;1.80;;;12.40;99.90;;;;;;5032955;28;20425;-49
2022/10/01 08:13:39;;;;;;;1.93;1.80;;;12.40;99.90;;;;;;5032199;28;20433;-46
2022/10/01 08:16:08;;;;;;;2.10;2.00;;;12.40;99.90;;;;;;5033274;28;20459;-47
2022/10/01 08:18:35;;;;;;;2.07;1.90;;;12.40;99.90;;;;;;5032993;28;20424;-47
2022/10/01 08:21:01;;;;;;;2.57;2.37;;;12.50;99.90;;;;;;5033116;28;20476;-47
2022/10/01 08:23:28;;;;;;;3.73;1.70;;;12.60;99.90;;;;;;5030771;28;20960;-48
2022/10/01 08:26:04;;;;;;;2.40;2.20;;;12.70;99.90;;;;;;5033208;28;20788;-48
2022/10/01 08:28:29;;;;;;;2.43;2.23;;;12.70;99.90;;;;;;5032756;28;20420;-53
2022/10/01 08:30:55;;;;;;;2.33;1.77;;;12.80;99.90;;;;;;5032903;28;20454;-48
2022/10/01 08:33:21;;;;;;;2.23;2.00;;;12.90;99.90;;;;;;5031975;28;20823;-45
2022/10/01 08:35:47;;;;;;;2.30;1.50;;;12.90;99.90;;;;;;5032821;28;20193;-46
2022/10/01 08:38:14;;;;;;;3.70;1.73;;;13.00;99.90;;;;;;5032329;28;20417;-48
2022/10/01 08:40:48;;;;;;;4.13;1.80;;;13.00;99.90;;;;;;5032619;28;20417;-50
2022/10/01 08:43:26;;;;;;;2.00;1.80;;;13.10;99.90;;;;;;5031920;28;20806;-49
2022/10/01 08:45:56;;;;;;;2.30;1.70;;;13.20;99.90;;;;;;5032709;28;20494;-50
2022/10/01 08:48:54;;;;;;;3.97;1.73;;;13.20;99.90;;;;;;5032286;28;20823;-48
2022/10/01 08:51:38;;;;;;;2.40;1.60;;;13.30;99.90;;;;;;5020931;28;20436;-45
2022/10/01 08:54:28;;;;;;;1.57;1.47;;;13.20;99.90;;;;;;5030117;28;20420;-51
2022/10/01 08:56:58;;;;;;;2.90;1.87;;;13.30;99.90;;;;;;5032092;28;20512;-49
2022/10/01 08:59:26;;;;;;;1.83;1.73;;;13.40;99.90;;;;;;5032193;28;20516;-46
2022/10/01 09:01:54;;;;;;;3.13;2.37;;;13.40;99.90;;;;;;5032383;28;20769;-49
2022/10/01 09:04:20;;;;;;;2.20;2.10;;;13.50;99.90;;;;;;5031523;28;20425;-45
2022/10/01 09:06:50;;;;;;;3.43;2.10;;;13.60;99.90;;;;;;5030276;28;20453;-51
2022/10/01 09:09:25;;;;;;;2.63;1.93;;;13.70;99.90;;;;;;5030420;28;20611;-48
2022/10/01 09:12:13;;;;;;;2.93;2.30;;;13.70;99.90;;;;;;5031936;28;20517;-46
2022/10/01 09:15:09;;;;;;;3.40;2.00;;;13.70;99.90;;;;;;5031266;28;21078;-48
2022/10/01 09:17:52;;;;;;;3.07;2.20;;;13.70;99.90;;;;;;5031913;28;20863;-52
2022/10/01 09:20:28;;;;;;;2.60;2.40;;;13.80;99.90;;;;;;5030721;28;20448;-47
2022/10/01 09:23:27;;;;;;;2.37;2.17;;;13.80;99.90;;;;;;5029932;28;20436;-46
2022/10/01 09:25:56;;;;;;;2.13;2.03;;;13.80;99.90;;;;;;5021055;28;20438;-49
2022/10/01 09:28:33;;;;;;;2.50;1.93;;;13.90;99.90;;;;;;5031036;28;20514;-45
2022/10/01 09:31:20;;;;;;;2.50;2.30;;;13.90;99.90;;;;;;5030544;28;20789;-45
2022/10/01 09:34:11;;;;;;;2.20;2.00;;;13.90;99.90;;;;;;5030806;28;20541;-52
2022/10/01 09:36:44;;;;;;;2.70;2.23;;;13.90;99.90;;;;;;5030726;28;20460;-50
2022/10/01 09:39:28;;;;;;;3.37;2.37;;;13.90;99.90;;;;;;5031487;28;20731;-46
2022/10/01 09:41:54;;;;;;;2.93;2.40;;;13.90;99.90;;;;;;5031631;28;20508;-47
2022/10/01 09:44:31;;;;;;;3.10;2.10;;;13.90;99.90;;;;;;5030671;28;20904;-50
2022/10/01 09:46:56;;;;;;;3.10;2.40;;;14.00;99.90;;;;;;5031220;28;20417;-52
2022/10/01 09:49:42;;;;;;;2.10;1.90;;;14.00;99.90;;;;;;5031136;28;20417;-48
2022/10/01 09:52:27;;;;;;;3.23;2.77;;;14.00;99.90;;;;;;5031254;28;20218;-50
2022/10/01 09:55:02;;;;;;;3.87;2.80;;;14.00;99.90;;;;;;5029381;28;20483;-50
2022/10/01 09:57:32;;;;;;;3.03;2.60;;;14.00;99.90;;;;;;5031017;28;20420;-48
2022/10/01 10:00:01;;;;;;;3.60;2.70;;;14.00;99.90;;;;;;5031169;28;20425;-45
2022/10/01 10:02:35;;;;;;;4.43;3.20;;;14.00;99.90;;;;;;5030857;28;21031;-50
2022/10/01 10:05:02;;;;;;;6.80;2.87;;;14.00;99.90;;;;;;5030459;28;20440;-50
2022/10/01 10:07:31;;;;;;;4.50;2.93;;;14.00;99.90;;;;;;5031083;28;20513;-47
2022/10/01 10:10:06;;;;;;;4.03;3.37;;;14.10;99.90;;;;;;5030699;28;20421;-46
2022/10/01 10:12:33;;;;;;;4.37;3.50;;;14.10;99.90;;;;;;5030673;28;20491;-46
2022/10/01 10:15:12;;;;;;;3.27;2.30;;;14.00;99.90;;;;;;5030374;28;20427;-51
2022/10/01 10:17:42;;;;;;;3.47;2.47;;;14.00;99.90;;;;;;5030761;28;20413;-47
2022/10/01 10:20:16;;;;;;;3.47;2.60;;;14.00;99.90;;;;;;5030149;28;20473;-50
2022/10/01 10:22:42;;;;;;;3.77;2.30;;;14.00;99.90;;;;;;5029947;28;20440;-49
2022/10/01 10:25:19;;;;;;;4.67;2.23;;;14.00;99.90;;;;;;5030572;28;20416;-47
2022/10/01 10:27:54;;;;;;;2.77;2.57;;;14.00;99.90;;;;;;5030521;28;20181;-50
2022/10/01 10:30:23;;;;;;;1.80;1.70;;;14.00;99.90;;;;;;5030641;28;20424;-49
2022/10/01 10:32:49;;;;;;;2.10;1.70;;;14.00;99.90;;;;;;5029531;28;20544;-51
2022/10/01 10:35:19;;;;;;;2.20;2.00;;;14.10;99.90;;;;;;5030664;28;20505;-50
2022/10/01 10:37:49;;;;;;;2.70;1.90;;;14.10;99.90;;;;;;5030549;28;20417;-48
2022/10/01 10:40:22;;;;;;;3.27;2.10;;;14.10;99.90;;;;;;5030585;28;20444;-49
2022/10/01 10:42:50;;;;;;;4.30;2.33;;;14.30;99.90;;;;;;5029721;28;20429;-52
2022/10/01 10:45:28;;;;;;;2.40;2.20;;;14.40;99.90;;;;;;5028876;28;20435;-48
2022/10/01 10:47:55;;;;;;;4.00;2.20;;;14.60;99.90;;;;;;5030267;28;20432;-52
2022/10/01 10:50:41;;;;;;;4.47;2.83;;;14.90;99.90;;;;;;5030307;28;20844;-47
2022/10/01 10:53:21;;;;;;;3.73;3.23;;;15.00;99.90;;;;;;5029683;28;20464;-45
2022/10/01 10:56:02;;;;;;;3.10;2.80;;;15.10;99.90;;;;;;5028463;28;20448;-51
2022/10/01 10:58:32;;;;;;;3.27;2.97;;;15.20;99.90;;;;;;5028904;28;20436;-46
2022/10/01 11:01:01;;;;;;;4.90;2.90;;;15.30;99.90;;;;;;5030362;28;20437;-51
2022/10/01 11:03:29;;;;;;;5.13;3.03;;;15.40;99.90;;;;;;5029334;28;20431;-48
2022/10/01 11:06:02;;;;;;;3.10;2.80;;;15.40;99.90;;;;;;5029686;28;20904;-53
2022/10/01 11:08:27;;;;;;;3.60;2.93;;;15.40;99.90;;;;;;5029972;28;20424;-46
2022/10/01 11:11:20;;;;;;;3.90;2.73;;;15.30;99.90;;;;;;5029991;28;20974;-51
2022/10/01 11:14:22;;;;;;;3.87;3.40;;;15.40;99.90;;;;;;5017085;28;20244;-48
2022/10/01 11:17:21;;;;;;;5.10;4.60;;;15.40;99.90;;;;;;5029990;28;20916;-50
2022/10/01 11:19:59;;;;;;;4.83;4.20;;;15.40;99.90;;;;;;5021671;28;20413;-53
2022/10/01 11:22:56;;;;;;;5.97;4.70;;;15.50;99.90;;;;;;5029736;28;21111;-48
2022/10/01 11:25:29;;;;;;;5.60;4.73;;;15.60;99.90;;;;;;5029939;28;20401;-48
2022/10/01 11:28:24;;;;;;;7.87;4.63;;;15.70;99.90;;;;;;5029831;28;20768;-50
2022/10/01 11:31:08;;;;;;;4.90;4.50;;;15.80;99.90;;;;;;5032445;28;20444;-48
2022/10/01 11:33:56;;;;;;;7.30;4.97;;;16.00;99.90;;;;;;5033144;28;20619;-50
2022/10/01 11:36:54;;;;;;;7.27;4.90;;;16.10;99.90;;;;;;5033741;28;20420;-50
2022/10/01 11:39:24;;;;;;;6.50;4.63;;;16.00;99.90;;;;;;5033534;28;20445;-49
2022/10/01 11:42:06;;;;;;;5.97;5.00;;;16.10;99.90;;;;;;5033768;28;20999;-48
2022/10/01 11:45:01;;;;;;;5.77;4.43;;;16.20;99.90;;;;;;5032997;28;20915;-46
2022/10/01 11:47:39;;;;;;;8.30;4.77;;;16.30;99.90;;;;;;5033633;28;20412;-48
2022/10/01 11:50:17;;;;;;;8.23;4.60;;;16.30;99.90;;;;;;5033613;28;20416;-48
2022/10/01 11:53:05;;;;;;;7.70;4.90;;;16.20;99.90;;;;;;5020720;28;20465;-50
2022/10/01 11:58:51;;;;;;;7.03;4.60;;;16.20;99.90;;;;;;5025400;28;20436;-50
2022/10/01 12:01:23;;;;;;;8.60;4.03;;;16.20;99.90;;;;;;5033602;28;20859;-50
2022/10/01 12:03:52;;;;;;;6.77;4.10;;;16.10;99.90;;;;;;5032482;28;20511;-52
2022/10/01 12:06:48;;;;;;;7.17;3.60;;;16.00;99.90;;;;;;5032993;28;20433;-51
2022/10/01 12:09:26;;;;;;;7.60;4.43;;;15.90;99.90;;;;;;5033791;28;20467;-48
2022/10/01 12:12:07;;;;;;;5.60;3.90;;;15.80;99.90;;;;;;5032319;28;20457;-52
2022/10/01 12:14:39;;;;;;;6.50;4.03;;;15.70;99.90;;;;;;5030936;28;21156;-52
2022/10/01 12:17:16;;;;;;;6.23;4.10;;;15.70;99.90;;;;;;5031939;28;20869;-49
2022/10/01 12:19:45;;;;;;;4.73;4.30;;;15.70;99.90;;;;;;5032319;28;20484;-48
2022/10/01 12:22:21;;;;;;;6.17;4.67;;;15.60;99.90;;;;;;5032176;28;20417;-48
2022/10/01 12:24:47;;;;;;;5.10;4.57;;;15.60;99.90;;;;;;5032108;28;20426;-50
2022/10/01 12:27:34;;;;;;;5.13;4.57;;;15.60;99.90;;;;;;5032684;28;21129;-49
2022/10/01 12:30:16;;;;;;;6.87;4.93;;;15.50;99.90;;;;;;5032773;28;20417;-48
2022/10/01 12:32:57;;;;;;;7.63;5.40;;;15.60;99.90;;;;;;5032025;28;20483;-52
2022/10/01 12:35:42;;;;;;;7.73;5.10;;;15.80;99.90;;;;;;5032776;28;20420;-51
2022/10/01 12:38:20;;;;;;;6.20;5.60;;;16.00;99.90;;;;;;5033138;28;20763;-49
2022/10/01 12:41:12;;;;;;;6.43;5.20;;;16.20;99.90;;;;;;5031079;28;20419;-47
2022/10/01 12:43:56;;;;;;;7.47;5.40;;;16.40;99.90;;;;;;5032084;28;20421;-48
2022/10/01 12:46:33;;;;;;;7.27;4.90;;;16.60;99.90;;;;;;5032501;28;20488;-49
2022/10/01 12:49:33;;;;;;;6.43;5.20;;;16.80;99.90;;;;;;5032536;28;20804;-48
2022/10/01 12:52:07;;;;;;;5.30;4.73;;;16.90;99.90;;;;;;5032359;28;21021;-51
2022/10/01 12:54:40;;;;;;;7.30;4.40;;;16.90;99.90;;;;;;5030204;28;20481;-47
2022/10/01 12:57:44;;;;;;;7.10;4.30;;;16.80;99.90;;;;;;5032286;28;20428;-49
2022/10/01 13:00:16;;;;;;;7.57;4.03;;;16.60;99.90;;;;;;5032303;28;20416;-48
2022/10/01 13:03:15;;;;;;;8.50;4.27;;;16.50;99.90;;;;;;5030176;28;20421;-47
2022/10/01 13:06:04;;;;;;;7.80;3.83;;;16.40;99.90;;;;;;5031015;28;20441;-47
2022/10/01 13:08:58;;;;;;;7.07;3.80;;;16.30;99.90;;;;;;5032161;28;20981;-48
2022/10/01 13:11:49;;;;;;;7.80;3.00;;;16.30;99.90;;;;;;5030544;28;21000;-47
2022/10/01 13:14:16;;;;;;;7.60;2.50;;;16.50;99.90;;;;;;5031073;28;20417;-50
2022/10/01 13:16:54;;;;;;;7.90;2.60;;;16.70;99.90;;;;;;5030046;28;20465;-49